sensor_id;sensor_type;location;lat;lon;timestamp;pressure;altitude;pressure_sealevel;temperature;humidity
29825;BME280;16713;52.916;12.834;2024-01-30T00:00:43;102254.78;;;0.24;68.49
29825;BME280;16713;52.916;12.834;2024-01-30T00:03:10;102256.09;;;0.21;68.90
29825;BME280;16713;52.916;12.834;2024-01-30T00:05:37;102252.31;;;0.22;67.47
29825;BME280;16713;52.916;12.834;2024-01-30T00:08:03;102256.66;;;0.23;68.36
29825;BME280;16713;52.916;12.834;2024-01-30T00:10:30;102252.88;;;0.24;67.28
29825;BME280;16713;52.916;12.834;2024-01-30T00:12:57;102254.78;;;0.24;68.20
29825;BME280;16713;52.916;12.834;2024-01-30T00:15:23;102254.50;;;0.25;67.88
29825;BME280;16713;52.916;12.834;2024-01-30T00:17:50;102249.34;;;0.24;67.51
29825;BME280;16713;52.916;12.834;2024-01-30T00:20:20;102250.97;;;0.25;66.95
29825;BME280;16713;52.916;12.834;2024-01-30T00:22:47;102252.06;;;0.24;68.69
29825;BME280;16713;52.916;12.834;2024-01-30T00:25:13;102242.88;;;0.25;67.97
29825;BME280;16713;52.916;12.834;2024-01-30T00:27:40;102250.41;;;0.23;67.19
29825;BME280;16713;52.916;12.834;2024-01-30T00:30:07;102242.28;;;0.23;67.94
29825;BME280;16713;52.916;12.834;2024-01-30T00:32:33;102245.56;;;0.25;68.75
29825;BME280;16713;52.916;12.834;2024-01-30T00:35:00;102241.81;;;0.26;68.24
29825;BME280;16713;52.916;12.834;2024-01-30T00:37:26;102244.78;;;0.24;67.17
29825;BME280;16713;52.916;12.834;2024-01-30T00:39:53;102243.69;;;0.25;66.93
29825;BME280;16713;52.916;12.834;2024-01-30T00:42:20;102240.16;;;0.25;67.82
29825;BME280;16713;52.916;12.834;2024-01-30T00:44:47;102246.91;;;0.22;67.65
29825;BME280;16713;52.916;12.834;2024-01-30T00:47:14;102243.94;;;0.24;68.40
29825;BME280;16713;52.916;12.834;2024-01-30T00:49:40;102254.47;;;0.20;67.47
29825;BME280;16713;52.916;12.834;2024-01-30T00:52:07;102248.78;;;0.22;68.66
29825;BME280;16713;52.916;12.834;2024-01-30T00:54:33;102245.00;;;0.23;69.09
29825;BME280;16713;52.916;12.834;2024-01-30T00:57:00;102250.69;;;0.21;67.39
29825;BME280;16713;52.916;12.834;2024-01-30T00:59:26;102251.75;;;0.20;68.42
29825;BME280;16713;52.916;12.834;2024-01-30T01:01:52;102256.34;;;0.20;68.54
29825;BME280;16713;52.916;12.834;2024-01-30T01:04:19;102256.91;;;0.22;68.12
29825;BME280;16713;52.916;12.834;2024-01-30T01:06:47;102264.47;;;0.20;68.28
29825;BME280;16713;52.916;12.834;2024-01-30T01:09:14;102255.28;;;0.21;68.84
29825;BME280;16713;52.916;12.834;2024-01-30T01:11:40;102247.44;;;0.19;68.24
29825;BME280;16713;52.916;12.834;2024-01-30T01:14:07;102249.59;;;0.17;68.38
29825;BME280;16713;52.916;12.834;2024-01-30T01:16:33;102247.97;;;0.16;68.16
29825;BME280;16713;52.916;12.834;2024-01-30T01:19:00;102242.78;;;0.14;67.96
29825;BME280;16713;52.916;12.834;2024-01-30T01:21:27;102237.88;;;0.11;67.34
29825;BME280;16713;52.916;12.834;2024-01-30T01:23:53;102250.03;;;0.09;68.19
29825;BME280;16713;52.916;12.834;2024-01-30T01:26:20;102244.34;;;0.10;67.74
29825;BME280;16713;52.916;12.834;2024-01-30T01:28:47;102238.34;;;0.03;67.81
29825;BME280;16713;52.916;12.834;2024-01-30T01:31:14;102244.88;;;0.07;67.60
29825;BME280;16713;52.916;12.834;2024-01-30T01:33:41;102247.03;;;0.05;67.67
29825;BME280;16713;52.916;12.834;2024-01-30T01:36:07;102244.59;;;0.04;66.76
29825;BME280;16713;52.916;12.834;2024-01-30T01:38:34;102236.72;;;0.02;68.42
29825;BME280;16713;52.916;12.834;2024-01-30T01:41:00;102236.72;;;0.02;67.31
29825;BME280;16713;52.916;12.834;2024-01-30T01:43:27;102241.31;;;0.02;67.50
29825;BME280;16713;52.916;12.834;2024-01-30T01:45:53;102235.09;;;0.01;68.46
29825;BME280;16713;52.916;12.834;2024-01-30T01:48:20;102231.31;;;0.02;67.45
29825;BME280;16713;52.916;12.834;2024-01-30T01:50:46;102231.84;;;-0.01;68.69
29825;BME280;16713;52.916;12.834;2024-01-30T01:53:15;102231.28;;;-0.03;67.93
29825;BME280;16713;52.916;12.834;2024-01-30T01:55:42;102239.13;;;-0.01;68.27
29825;BME280;16713;52.916;12.834;2024-01-30T01:58:09;102238.06;;;-0.00;68.01
29825;BME280;16713;52.916;12.834;2024-01-30T02:00:36;102237.00;;;0.01;68.44
29825;BME280;16713;52.916;12.834;2024-01-30T02:03:06;102241.00;;;-0.02;68.77
29825;BME280;16713;52.916;12.834;2024-01-30T02:05:33;102239.91;;;-0.06;67.51
29825;BME280;16713;52.916;12.834;2024-01-30T02:08:01;102246.16;;;-0.05;68.25
29825;BME280;16713;52.916;12.834;2024-01-30T02:10:27;102244.22;;;-0.05;68.04
29825;BME280;16713;52.916;12.834;2024-01-30T02:12:54;102243.97;;;-0.03;68.20
29825;BME280;16713;52.916;12.834;2024-01-30T02:15:21;102242.88;;;-0.07;68.94
29825;BME280;16713;52.916;12.834;2024-01-30T02:17:47;102241.78;;;-0.06;68.64
29825;BME280;16713;52.916;12.834;2024-01-30T02:20:14;102243.44;;;-0.05;68.62
29825;BME280;16713;52.916;12.834;2024-01-30T02:22:41;102243.69;;;-0.07;68.58
29825;BME280;16713;52.916;12.834;2024-01-30T02:25:09;102239.34;;;-0.08;68.04
29825;BME280;16713;52.916;12.834;2024-01-30T02:27:35;102240.69;;;-0.10;68.76
29825;BME280;16713;52.916;12.834;2024-01-30T02:30:02;102238.78;;;-0.15;68.76
29825;BME280;16713;52.916;12.834;2024-01-30T02:32:28;102245.22;;;-0.16;68.42
29825;BME280;16713;52.916;12.834;2024-01-30T02:34:55;102239.25;;;-0.18;69.26
29825;BME280;16713;52.916;12.834;2024-01-30T02:37:22;102230.88;;;-0.21;68.43
29825;BME280;16713;52.916;12.834;2024-01-30T02:39:48;102230.03;;;-0.22;68.30
29825;BME280;16713;52.916;12.834;2024-01-30T02:42:15;102235.47;;;-0.22;68.53
29825;BME280;16713;52.916;12.834;2024-01-30T02:44:41;102222.72;;;-0.26;68.23
29825;BME280;16713;52.916;12.834;2024-01-30T02:47:07;102227.28;;;-0.27;68.27
29825;BME280;16713;52.916;12.834;2024-01-30T02:49:34;102223.50;;;-0.26;67.76
29825;BME280;16713;52.916;12.834;2024-01-30T02:52:01;102225.16;;;-0.25;69.40
29825;BME280;16713;52.916;12.834;2024-01-30T02:54:27;102226.78;;;-0.24;69.07
29825;BME280;16713;52.916;12.834;2024-01-30T02:56:54;102226.78;;;-0.24;69.31
29825;BME280;16713;52.916;12.834;2024-01-30T02:59:20;102225.72;;;-0.23;69.13
29825;BME280;16713;52.916;12.834;2024-01-30T03:01:47;102223.81;;;-0.22;69.03
29825;BME280;16713;52.916;12.834;2024-01-30T03:04:14;102229.53;;;-0.19;69.13
29825;BME280;16713;52.916;12.834;2024-01-30T03:06:45;102223.28;;;-0.19;68.88
29825;BME280;16713;52.916;12.834;2024-01-30T03:09:13;102224.38;;;-0.20;68.38
29825;BME280;16713;52.916;12.834;2024-01-30T03:11:40;102222.19;;;-0.23;68.59
29825;BME280;16713;52.916;12.834;2024-01-30T03:14:06;102227.28;;;-0.27;69.07
29825;BME280;16713;52.916;12.834;2024-01-30T03:16:34;102216.47;;;-0.27;68.41
29825;BME280;16713;52.916;12.834;2024-01-30T03:19:00;102217.88;;;-0.24;68.75
29825;BME280;16713;52.916;12.834;2024-01-30T03:21:28;102209.44;;;-0.28;68.72
29825;BME280;16713;52.916;12.834;2024-01-30T03:23:54;102214.59;;;-0.26;68.18
29825;BME280;16713;52.916;12.834;2024-01-30T03:26:21;102217.56;;;-0.28;68.38
29825;BME280;16713;52.916;12.834;2024-01-30T03:28:47;102214.03;;;-0.28;68.42
29825;BME280;16713;52.916;12.834;2024-01-30T03:31:15;102215.91;;;-0.29;68.73
29825;BME280;16713;52.916;12.834;2024-01-30T03:33:42;102212.69;;;-0.31;68.07
29825;BME280;16713;52.916;12.834;2024-01-30T03:36:09;102209.97;;;-0.31;69.15
29825;BME280;16713;52.916;12.834;2024-01-30T03:38:35;102215.06;;;-0.34;67.58
29825;BME280;16713;52.916;12.834;2024-01-30T03:41:02;102221.28;;;-0.34;68.30
29825;BME280;16713;52.916;12.834;2024-01-30T03:43:29;102221.28;;;-0.34;68.49
29825;BME280;16713;52.916;12.834;2024-01-30T03:45:55;102225.06;;;-0.35;68.65
29825;BME280;16713;52.916;12.834;2024-01-30T03:48:22;102227.47;;;-0.38;68.07
29825;BME280;16713;52.916;12.834;2024-01-30T03:50:49;102226.66;;;-0.39;68.86
29825;BME280;16713;52.916;12.834;2024-01-30T03:53:15;102224.75;;;-0.38;68.49
29825;BME280;16713;52.916;12.834;2024-01-30T03:55:41;102221.78;;;-0.37;68.91
29825;BME280;16713;52.916;12.834;2024-01-30T03:58:08;102212.38;;;-0.34;69.33
29825;BME280;16713;52.916;12.834;2024-01-30T04:00:35;102205.88;;;-0.33;68.97
29825;BME280;16713;52.916;12.834;2024-01-30T04:03:01;102209.97;;;-0.31;68.28
29825;BME280;16713;52.916;12.834;2024-01-30T04:05:28;102205.34;;;-0.30;69.18
29825;BME280;16713;52.916;12.834;2024-01-30T04:07:55;102198.34;;;-0.31;70.03
29825;BME280;16713;52.916;12.834;2024-01-30T04:10:21;102200.53;;;-0.28;69.17
29825;BME280;16713;52.916;12.834;2024-01-30T04:12:48;102189.41;;;-0.32;68.80
29825;BME280;16713;52.916;12.834;2024-01-30T04:15:14;102194.00;;;-0.32;68.13
29825;BME280;16713;52.916;12.834;2024-01-30T04:17:41;102194.00;;;-0.32;68.88
29825;BME280;16713;52.916;12.834;2024-01-30T04:20:11;102194.00;;;-0.32;68.05
29825;BME280;16713;52.916;12.834;2024-01-30T04:22:38;102192.63;;;-0.35;69.18
29825;BME280;16713;52.916;12.834;2024-01-30T04:25:05;102203.44;;;-0.35;68.92
29825;BME280;16713;52.916;12.834;2024-01-30T04:27:31;102204.56;;;-0.31;69.25
29825;BME280;16713;52.916;12.834;2024-01-30T04:29:58;102201.00;;;-0.36;68.87
29825;BME280;16713;52.916;12.834;2024-01-30T04:32:24;102205.31;;;-0.35;68.81
29825;BME280;16713;52.916;12.834;2024-01-30T04:34:51;102209.66;;;-0.34;68.60
29825;BME280;16713;52.916;12.834;2024-01-30T04:37:18;102203.44;;;-0.35;68.77
29825;BME280;16713;52.916;12.834;2024-01-30T04:39:44;102207.22;;;-0.36;68.20
29825;BME280;16713;52.916;12.834;2024-01-30T04:42:11;102215.59;;;-0.37;68.41
29825;BME280;16713;52.916;12.834;2024-01-30T04:44:37;102207.22;;;-0.36;69.19
29825;BME280;16713;52.916;12.834;2024-01-30T04:47:04;102203.44;;;-0.35;69.02
29825;BME280;16713;52.916;12.834;2024-01-30T04:49:32;102195.88;;;-0.33;69.22
29825;BME280;16713;52.916;12.834;2024-01-30T04:51:58;102197.81;;;-0.28;68.02
29825;BME280;16713;52.916;12.834;2024-01-30T04:54:25;102202.69;;;-0.25;69.14
29825;BME280;16713;52.916;12.834;2024-01-30T04:56:52;102204.56;;;-0.26;68.39
29825;BME280;16713;52.916;12.834;2024-01-30T04:59:18;102200.81;;;-0.25;68.64
29825;BME280;16713;52.916;12.834;2024-01-30T05:01:45;102201.66;;;-0.24;69.09
29825;BME280;16713;52.916;12.834;2024-01-30T05:04:11;102193.53;;;-0.24;70.00
29825;BME280;16713;52.916;12.834;2024-01-30T05:06:42;102187.03;;;-0.23;68.80
29825;BME280;16713;52.916;12.834;2024-01-30T05:09:09;102188.41;;;-0.21;69.47
29825;BME280;16713;52.916;12.834;2024-01-30T05:11:39;102183.81;;;-0.20;70.06
29825;BME280;16713;52.916;12.834;2024-01-30T05:14:07;102186.25;;;-0.19;69.63
29825;BME280;16713;52.916;12.834;2024-01-30T05:16:33;102177.88;;;-0.17;69.07
29825;BME280;16713;52.916;12.834;2024-01-30T05:19:00;102196.00;;;-0.18;69.26
29825;BME280;16713;52.916;12.834;2024-01-30T05:21:29;102190.84;;;-0.19;69.13
29825;BME280;16713;52.916;12.834;2024-01-30T05:23:55;102193.81;;;-0.21;68.83
29825;BME280;16713;52.916;12.834;2024-01-30T05:26:22;102195.97;;;-0.23;68.94
29825;BME280;16713;52.916;12.834;2024-01-30T05:28:49;102195.97;;;-0.23;70.08
29825;BME280;16713;52.916;12.834;2024-01-30T05:31:15;102193.53;;;-0.19;70.28
29825;BME280;16713;52.916;12.834;2024-01-30T05:33:42;102188.69;;;-0.17;69.09
29825;BME280;16713;52.916;12.834;2024-01-30T05:36:11;102183.28;;;-0.17;68.51
29825;BME280;16713;52.916;12.834;2024-01-30T05:38:39;102190.59;;;-0.18;68.67
29825;BME280;16713;52.916;12.834;2024-01-30T05:41:05;102183.00;;;-0.21;69.40
29825;BME280;16713;52.916;12.834;2024-01-30T05:43:32;102182.47;;;-0.18;68.56
29825;BME280;16713;52.916;12.834;2024-01-30T05:45:58;102181.16;;;-0.15;69.75
29825;BME280;16713;52.916;12.834;2024-01-30T05:48:25;102181.41;;;-0.17;68.56
29825;BME280;16713;52.916;12.834;2024-01-30T05:50:51;102183.28;;;-0.17;69.52
29825;BME280;16713;52.916;12.834;2024-01-30T05:53:18;102183.59;;;-0.14;69.50
29825;BME280;16713;52.916;12.834;2024-01-30T05:55:45;102183.84;;;-0.15;68.85
29825;BME280;16713;52.916;12.834;2024-01-30T05:58:11;102176.56;;;-0.15;68.99
29825;BME280;16713;52.916;12.834;2024-01-30T06:00:38;102184.94;;;-0.16;69.10
29825;BME280;16713;52.916;12.834;2024-01-30T06:03:04;102180.63;;;-0.12;69.29
29825;BME280;16713;52.916;12.834;2024-01-30T06:05:31;102181.41;;;-0.17;69.89
29825;BME280;16713;52.916;12.834;2024-01-30T06:07:57;102180.59;;;-0.17;68.77
29825;BME280;16713;52.916;12.834;2024-01-30T06:10:24;102183.28;;;-0.17;68.48
29825;BME280;16713;52.916;12.834;2024-01-30T06:12:50;102186.00;;;-0.17;68.86
29825;BME280;16713;52.916;12.834;2024-01-30T06:15:17;102184.13;;;-0.17;69.40
29825;BME280;16713;52.916;12.834;2024-01-30T06:17:43;102179.22;;;-0.20;69.05
29825;BME280;16713;52.916;12.834;2024-01-30T06:20:10;102172.75;;;-0.19;68.71
29825;BME280;16713;52.916;12.834;2024-01-30T06:22:36;102183.00;;;-0.21;68.69
29825;BME280;16713;52.916;12.834;2024-01-30T06:25:03;102186.25;;;-0.19;69.49
29825;BME280;16713;52.916;12.834;2024-01-30T06:27:30;102192.75;;;-0.20;67.97
29825;BME280;16713;52.916;12.834;2024-01-30T06:29:56;102198.69;;;-0.18;68.83
29825;BME280;16713;52.916;12.834;2024-01-30T06:32:23;102197.59;;;-0.22;68.83
29825;BME280;16713;52.916;12.834;2024-01-30T06:34:49;102202.47;;;-0.19;69.14
29825;BME280;16713;52.916;12.834;2024-01-30T06:37:16;102207.59;;;-0.22;69.54
29825;BME280;16713;52.916;12.834;2024-01-30T06:39:42;102209.25;;;-0.21;69.25
29825;BME280;16713;52.916;12.834;2024-01-30T06:42:09;102202.47;;;-0.19;68.35
29825;BME280;16713;52.916;12.834;2024-01-30T06:44:35;102197.06;;;-0.19;69.37
29825;BME280;16713;52.916;12.834;2024-01-30T06:47:02;102196.28;;;-0.14;69.64
29825;BME280;16713;52.916;12.834;2024-01-30T06:49:28;102191.16;;;-0.16;69.43
29825;BME280;16713;52.916;12.834;2024-01-30T06:51:55;102195.75;;;-0.16;69.45
29825;BME280;16713;52.916;12.834;2024-01-30T06:54:22;102192.50;;;-0.18;68.37
29825;BME280;16713;52.916;12.834;2024-01-30T06:56:48;102194.63;;;-0.20;68.65
29825;BME280;16713;52.916;12.834;2024-01-30T06:59:15;102187.09;;;-0.18;68.67
29825;BME280;16713;52.916;12.834;2024-01-30T07:01:41;102188.41;;;-0.21;68.75
29825;BME280;16713;52.916;12.834;2024-01-30T07:04:08;102190.56;;;-0.23;69.08
29825;BME280;16713;52.916;12.834;2024-01-30T07:06:34;102182.72;;;-0.24;68.57
29825;BME280;16713;52.916;12.834;2024-01-30T07:09:01;102188.34;;;-0.26;68.61
29825;BME280;16713;52.916;12.834;2024-01-30T07:11:27;102183.50;;;-0.24;68.89
29825;BME280;16713;52.916;12.834;2024-01-30T07:13:55;102168.38;;;-0.25;68.85
29825;BME280;16713;52.916;12.834;2024-01-30T07:16:21;102168.63;;;-0.26;68.58
29825;BME280;16713;52.916;12.834;2024-01-30T07:18:49;102167.28;;;-0.24;69.12
29825;BME280;16713;52.916;12.834;2024-01-30T07:21:16;102180.31;;;-0.16;68.76
29825;BME280;16713;52.916;12.834;2024-01-30T07:23:43;102177.66;;;-0.11;69.82
29825;BME280;16713;52.916;12.834;2024-01-30T07:26:09;102173.63;;;-0.08;69.00
29825;BME280;16713;52.916;12.834;2024-01-30T07:28:36;102177.97;;;-0.07;69.59
29825;BME280;16713;52.916;12.834;2024-01-30T07:31:02;102175.25;;;-0.07;69.10
29825;BME280;16713;52.916;12.834;2024-01-30T07:33:29;102171.16;;;-0.10;69.06
29825;BME280;16713;52.916;12.834;2024-01-30T07:35:56;102170.38;;;-0.10;69.34
29825;BME280;16713;52.916;12.834;2024-01-30T07:38:24;102169.56;;;-0.11;68.74
29825;BME280;16713;52.916;12.834;2024-01-30T07:40:50;102171.72;;;-0.08;69.21
29825;BME280;16713;52.916;12.834;2024-01-30T07:43:17;102183.91;;;-0.10;69.59
29825;BME280;16713;52.916;12.834;2024-01-30T07:45:43;102182.28;;;-0.06;69.93
29825;BME280;16713;52.916;12.834;2024-01-30T07:48:10;102179.88;;;-0.03;70.31
29825;BME280;16713;52.916;12.834;2024-01-30T07:50:36;102181.28;;;-0.00;70.18
29825;BME280;16713;52.916;12.834;2024-01-30T07:53:03;102176.91;;;-0.01;69.70
29825;BME280;16713;52.916;12.834;2024-01-30T07:55:30;102173.94;;;0.00;70.77
29825;BME280;16713;52.916;12.834;2024-01-30T07:57:58;102167.75;;;0.05;70.25
29825;BME280;16713;52.916;12.834;2024-01-30T08:00:26;102159.66;;;0.10;71.04
29825;BME280;16713;52.916;12.834;2024-01-30T08:02:53;102162.69;;;0.13;70.94
29825;BME280;16713;52.916;12.834;2024-01-30T08:05:21;102167.59;;;0.17;71.26
29825;BME280;16713;52.916;12.834;2024-01-30T08:07:51;102157.88;;;0.21;71.11
29825;BME280;16713;52.916;12.834;2024-01-30T08:10:18;102161.94;;;0.23;70.33
29825;BME280;16713;52.916;12.834;2024-01-30T08:12:45;102160.06;;;0.24;71.19
29825;BME280;16713;52.916;12.834;2024-01-30T08:15:12;102158.44;;;0.28;71.17
29825;BME280;16713;52.916;12.834;2024-01-30T08:17:41;102161.19;;;0.33;71.21
29825;BME280;16713;52.916;12.834;2024-01-30T08:20:08;102158.75;;;0.36;70.34
29825;BME280;16713;52.916;12.834;2024-01-30T08:22:40;102165.53;;;0.39;70.11
29825;BME280;16713;52.916;12.834;2024-01-30T08:25:07;102157.69;;;0.42;70.93
29825;BME280;16713;52.916;12.834;2024-01-30T08:27:34;102161.53;;;0.46;70.42
29825;BME280;16713;52.916;12.834;2024-01-30T08:30:02;102164.53;;;0.50;70.90
29825;BME280;16713;52.916;12.834;2024-01-30T08:32:29;102160.75;;;0.56;70.06
29825;BME280;16713;52.916;12.834;2024-01-30T08:34:56;102154.81;;;0.59;70.52
29825;BME280;16713;52.916;12.834;2024-01-30T08:37:22;102154.28;;;0.62;71.90
29825;BME280;16713;52.916;12.834;2024-01-30T08:39:49;102161.59;;;0.66;70.38
29825;BME280;16713;52.916;12.834;2024-01-30T08:42:15;102155.63;;;0.69;70.47
29825;BME280;16713;52.916;12.834;2024-01-30T08:44:44;102156.47;;;0.75;71.79
29825;BME280;16713;52.916;12.834;2024-01-30T08:47:11;102155.69;;;0.79;71.36
29825;BME280;16713;52.916;12.834;2024-01-30T08:49:37;102156.53;;;0.85;70.79
29825;BME280;16713;52.916;12.834;2024-01-30T08:52:04;102157.06;;;0.92;71.73
29825;BME280;16713;52.916;12.834;2024-01-30T08:54:30;102152.75;;;0.96;71.46
29825;BME280;16713;52.916;12.834;2024-01-30T08:57:00;102153.56;;;1.01;72.09
29825;BME280;16713;52.916;12.834;2024-01-30T08:59:27;102156.84;;;1.08;71.20
29825;BME280;16713;52.916;12.834;2024-01-30T09:01:53;102151.69;;;1.12;71.68
29825;BME280;16713;52.916;12.834;2024-01-30T09:04:36;102158.75;;;1.18;72.21
29825;BME280;16713;52.916;12.834;2024-01-30T09:07:03;102158.22;;;1.26;70.68
29825;BME280;16713;52.916;12.834;2024-01-30T09:09:32;102154.41;;;1.32;71.70
29825;BME280;16713;52.916;12.834;2024-01-30T09:11:59;102158.75;;;1.43;72.88
29825;BME280;16713;52.916;12.834;2024-01-30T09:14:30;102148.47;;;1.50;72.47
29825;BME280;16713;52.916;12.834;2024-01-30T09:16:57;102152.28;;;1.54;71.48
29825;BME280;16713;52.916;12.834;2024-01-30T09:19:23;102146.31;;;1.62;72.08
29825;BME280;16713;52.916;12.834;2024-01-30T09:21:50;102144.13;;;1.69;72.03
29825;BME280;16713;52.916;12.834;2024-01-30T09:24:16;102137.59;;;1.75;71.71
29825;BME280;16713;52.916;12.834;2024-01-30T09:26:43;102133.53;;;1.83;71.90
29825;BME280;16713;52.916;12.834;2024-01-30T09:29:09;102124.84;;;1.91;71.64
29825;BME280;16713;52.916;12.834;2024-01-30T09:31:36;102128.34;;;1.96;72.38
29825;BME280;16713;52.916;12.834;2024-01-30T09:34:02;102132.41;;;2.09;70.51
29825;BME280;16713;52.916;12.834;2024-01-30T09:36:29;102129.13;;;2.12;70.24
29825;BME280;16713;52.916;12.834;2024-01-30T09:38:56;102134.28;;;2.18;70.17
29825;BME280;16713;52.916;12.834;2024-01-30T09:41:23;102134.22;;;2.23;71.18
29825;BME280;16713;52.916;12.834;2024-01-30T09:43:50;102145.06;;;2.28;69.70
29825;BME280;16713;52.916;12.834;2024-01-30T09:46:17;102142.59;;;2.37;70.58
29825;BME280;16713;52.916;12.834;2024-01-30T09:48:47;102144.47;;;2.46;70.64
29825;BME280;16713;52.916;12.834;2024-01-30T09:51:16;102141.22;;;2.44;69.53
29825;BME280;16713;52.916;12.834;2024-01-30T09:53:44;102150.16;;;2.50;70.02
29825;BME280;16713;52.916;12.834;2024-01-30T09:56:12;102142.03;;;2.55;70.42
29825;BME280;16713;52.916;12.834;2024-01-30T09:58:39;102146.63;;;2.59;70.28
29825;BME280;16713;52.916;12.834;2024-01-30T10:01:06;102142.00;;;2.65;69.31
29825;BME280;16713;52.916;12.834;2024-01-30T10:03:33;102139.00;;;2.66;68.44
29825;BME280;16713;52.916;12.834;2024-01-30T10:06:01;102138.94;;;2.71;68.65
29825;BME280;16713;52.916;12.834;2024-01-30T10:08:27;102140.59;;;2.72;69.86
29825;BME280;16713;52.916;12.834;2024-01-30T10:10:56;102140.03;;;2.75;68.82
29825;BME280;16713;52.916;12.834;2024-01-30T10:13:23;102142.19;;;2.78;68.38
29825;BME280;16713;52.916;12.834;2024-01-30T10:15:49;102138.63;;;2.78;69.82
29825;BME280;16713;52.916;12.834;2024-01-30T10:18:16;102135.63;;;2.84;70.00
29825;BME280;16713;52.916;12.834;2024-01-30T10:20:43;102135.06;;;2.87;68.86
29825;BME280;16713;52.916;12.834;2024-01-30T10:23:09;102132.34;;;2.87;69.70
29825;BME280;16713;52.916;12.834;2024-01-30T10:25:37;102142.06;;;2.98;68.29
29825;BME280;16713;52.916;12.834;2024-01-30T10:28:04;102141.25;;;2.98;68.25
29825;BME280;16713;52.916;12.834;2024-01-30T10:30:31;102133.34;;;3.02;69.56
29825;BME280;16713;52.916;12.834;2024-01-30T10:32:58;102125.47;;;3.05;68.89
29825;BME280;16713;52.916;12.834;2024-01-30T10:35:24;102133.03;;;3.08;68.78
29825;BME280;16713;52.916;12.834;2024-01-30T10:37:51;102135.19;;;3.11;69.15
29825;BME280;16713;52.916;12.834;2024-01-30T10:40:21;102128.38;;;3.14;68.89
29825;BME280;16713;52.916;12.834;2024-01-30T10:42:50;102125.63;;;3.19;69.49
29825;BME280;16713;52.916;12.834;2024-01-30T10:45:19;102137.56;;;3.23;69.59
29825;BME280;16713;52.916;12.834;2024-01-30T10:47:53;102128.59;;;3.22;68.40
29825;BME280;16713;52.916;12.834;2024-01-30T10:50:20;102130.16;;;3.28;68.86
29825;BME280;16713;52.916;12.834;2024-01-30T10:52:47;102129.88;;;3.30;69.25
29825;BME280;16713;52.916;12.834;2024-01-30T10:55:15;102129.84;;;3.35;69.53
29825;BME280;16713;52.916;12.834;2024-01-30T10:57:42;102115.97;;;3.36;69.39
29825;BME280;16713;52.916;12.834;2024-01-30T11:00:10;102118.63;;;3.41;68.77
29825;BME280;16713;52.916;12.834;2024-01-30T11:02:40;102115.09;;;3.41;68.55
29825;BME280;16713;52.916;12.834;2024-01-30T11:05:07;102117.50;;;3.47;68.83
29825;BME280;16713;52.916;12.834;2024-01-30T11:07:35;102119.94;;;3.49;69.27
29825;BME280;16713;52.916;12.834;2024-01-30T11:10:03;102114.19;;;3.50;68.67
29825;BME280;16713;52.916;12.834;2024-01-30T11:12:32;102122.91;;;3.52;69.09
29825;BME280;16713;52.916;12.834;2024-01-30T11:15:06;102127.75;;;3.55;69.10
29825;BME280;16713;52.916;12.834;2024-01-30T11:17:40;102122.56;;;3.59;69.54
29825;BME280;16713;52.916;12.834;2024-01-30T11:20:11;102117.13;;;3.59;68.71
29825;BME280;16713;52.916;12.834;2024-01-30T11:22:41;102117.66;;;3.61;68.97
29825;BME280;16713;52.916;12.834;2024-01-30T11:25:11;102112.47;;;3.64;68.80
29825;BME280;16713;52.916;12.834;2024-01-30T11:27:37;102117.09;;;3.64;69.14
29825;BME280;16713;52.916;12.834;2024-01-30T11:30:05;102116.22;;;3.68;68.76
29825;BME280;16713;52.916;12.834;2024-01-30T11:32:31;102113.22;;;3.70;68.95
29825;BME280;16713;52.916;12.834;2024-01-30T11:34:58;102102.56;;;3.73;68.68
29825;BME280;16713;52.916;12.834;2024-01-30T11:37:26;102106.69;;;3.71;68.96
29825;BME280;16713;52.916;12.834;2024-01-30T11:39:53;102103.09;;;3.75;68.34
29825;BME280;16713;52.916;12.834;2024-01-30T11:42:22;102093.00;;;3.76;69.02
29825;BME280;16713;52.916;12.834;2024-01-30T11:44:51;102095.69;;;3.81;68.66
29825;BME280;16713;52.916;12.834;2024-01-30T11:47:17;102096.75;;;3.85;68.56
29825;BME280;16713;52.916;12.834;2024-01-30T11:49:44;102095.34;;;3.87;68.78
29825;BME280;16713;52.916;12.834;2024-01-30T11:52:11;102086.59;;;3.90;68.70
29825;BME280;16713;52.916;12.834;2024-01-30T11:54:39;102080.06;;;3.91;68.56
29825;BME280;16713;52.916;12.834;2024-01-30T11:57:06;102071.56;;;3.98;68.57
29825;BME280;16713;52.916;12.834;2024-01-30T11:59:32;102069.97;;;3.92;68.83
29825;BME280;16713;52.916;12.834;2024-01-30T12:01:59;102063.63;;;4.01;68.66
29825;BME280;16713;52.916;12.834;2024-01-30T12:04:28;102067.13;;;4.02;68.31
29825;BME280;16713;52.916;12.834;2024-01-30T12:06:56;102055.72;;;4.00;68.56
29825;BME280;16713;52.916;12.834;2024-01-30T12:09:22;102055.72;;;4.00;68.49
29825;BME280;16713;52.916;12.834;2024-01-30T12:11:49;102063.09;;;3.99;69.03
29825;BME280;16713;52.916;12.834;2024-01-30T12:14:19;102060.38;;;3.99;69.29
29825;BME280;16713;52.916;12.834;2024-01-30T12:16:49;102053.81;;;4.00;69.64
29825;BME280;16713;52.916;12.834;2024-01-30T12:19:26;102058.97;;;4.02;69.14
29825;BME280;16713;52.916;12.834;2024-01-30T12:21:57;102054.56;;;4.06;69.24
29825;BME280;16713;52.916;12.834;2024-01-30T12:24:26;102061.94;;;4.05;69.39
29825;BME280;16713;52.916;12.834;2024-01-30T12:26:57;102060.25;;;4.09;69.37
29825;BME280;16713;52.916;12.834;2024-01-30T12:29:24;102059.38;;;4.14;69.24
29825;BME280;16713;52.916;12.834;2024-01-30T12:31:53;102059.09;;;4.15;69.13
29825;BME280;16713;52.916;12.834;2024-01-30T12:34:21;102052.81;;;4.15;69.01
29825;BME280;16713;52.916;12.834;2024-01-30T12:36:48;102045.72;;;4.19;69.05
29825;BME280;16713;52.916;12.834;2024-01-30T12:39:17;102045.63;;;4.24;69.18
29825;BME280;16713;52.916;12.834;2024-01-30T12:41:44;102034.66;;;4.29;68.69
29825;BME280;16713;52.916;12.834;2024-01-30T12:44:13;102040.34;;;4.32;68.84